MET'MAP v2.0
soon released !

Expected late october,
this new version will be
more efficient, smarter,
and hosted on a brand new
server x3 powerfull...
...and still free !


Not compatible ?
Try the mobile version !

LOG IN : | Subscribe | Disclaimer | Who is Orbifly ? |
ICAO code :

TAF - DAUO Guemar - El Oued - 25 Feb 2020 01:33 UTC - Data Source NOAA   


- Airport Elevation : 203 ft
- IATA code : ELU
- No reported NOTAMs.


DAUO - Guemar - El Oued

Latest METAR recorded : 2015/08/11 08:00 DAUO 110800Z 32006KT CAVOK 31/21 Q1013
TAF TAF DAUO
Valid from the 25 at 00:00 until the 25 at 09:00 UTC


242300Z 2500/2509 20005KT CAVOK

Source NOAA


MET'MAP, your aeronautical weather chart ! - Copyright ORBIFLY December 2007

Programming & Development : Alexandra Zaïnal
Co-Developer : Marc-Olivier Méhu
Technical & hardware support : Manuel Goepfert
Concept & Financing : Baudouin d'Aumeries